SBU127 TFFG-TFFJ
Flight info
| Callsign | SBU127 |
|---|---|
| Flight time | 0h 8m |
| Altitude | 3000 |
| Route | PJM |
| Aircraft | C208/L-SDFGRY/C |
Departure
| Time | 2026-04-22 08:59 |
|---|---|
| Airport | Grand Case-l'Espérance Airport (TFFG) |
Arrival
| Time | 2026-04-22 09:08 |
|---|---|
| Airport | St. Jean Airport (TFFJ) |
| Time | Latitude | Longitude | Altitude | Speed | Heading |
|---|---|---|---|---|---|
| 2026-04-22 08:49 | 18.10156 | -63.04821 | 17 ft | 0 kts | 106° |
| 2026-04-22 08:57 | 18.10152 | -63.04816 | 17 ft | 5 kts | 161° |
| 2026-04-22 08:57 | 18.10096 | -63.04876 | 15 ft | 20 kts | 202° |
| 2026-04-22 08:57 | 18.10103 | -63.05044 | 13 ft | 31 kts | 287° |
| 2026-04-22 08:57 | 18.10161 | -63.05242 | 12 ft | 8 kts | 233° |
| 2026-04-22 08:58 | 18.10150 | -63.05228 | 12 ft | 0 kts | 108° |
| 2026-04-22 08:58 | 18.10125 | -63.05140 | 13 ft | 37 kts | 107° |
| 2026-04-22 08:58 | 18.10004 | -63.04733 | 12 ft | 78 kts | 106° |
| 2026-04-22 08:58 | 18.09861 | -63.04152 | 169 ft | 86 kts | 101° |
| 2026-04-22 08:59 | 18.09726 | -63.03504 | 363 ft | 92 kts | 99° |
| 2026-04-22 08:59 | 18.09532 | -63.02812 | 419 ft | 110 kts | 108° |
| 2026-04-22 08:59 | 18.09275 | -63.02040 | 588 ft | 115 kts | 107° |
| 2026-04-22 08:59 | 18.09020 | -63.01251 | 733 ft | 114 kts | 107° |
| 2026-04-22 09:00 | 18.08521 | -63.00612 | 881 ft | 120 kts | 153° |
| 2026-04-22 09:00 | 18.07758 | -63.00248 | 1038 ft | 121 kts | 152° |
| 2026-04-22 09:00 | 18.06985 | -62.99883 | 1193 ft | 123 kts | 161° |
| 2026-04-22 09:00 | 18.06133 | -62.99735 | 1350 ft | 125 kts | 169° |
| 2026-04-22 09:01 | 18.05272 | -62.99597 | 1502 ft | 125 kts | 169° |
| 2026-04-22 09:01 | 18.04405 | -62.99460 | 1661 ft | 126 kts | 169° |
| 2026-04-22 09:01 | 18.03536 | -62.99326 | 1805 ft | 127 kts | 169° |
| 2026-04-22 09:01 | 18.02661 | -62.99194 | 1956 ft | 127 kts | 169° |
| 2026-04-22 09:02 | 18.01765 | -62.99059 | 2009 ft | 135 kts | 169° |
| 2026-04-22 09:02 | 18.00813 | -62.98889 | 2018 ft | 142 kts | 167° |
| 2026-04-22 09:02 | 17.99890 | -62.98552 | 2019 ft | 143 kts | 148° |
| 2026-04-22 09:02 | 17.99016 | -62.98030 | 2018 ft | 146 kts | 149° |
| 2026-04-22 09:03 | 17.98109 | -62.97538 | 2018 ft | 147 kts | 151° |
| 2026-04-22 09:03 | 17.97192 | -62.97055 | 2018 ft | 148 kts | 150° |
| 2026-04-22 09:03 | 17.96265 | -62.96568 | 2015 ft | 150 kts | 150° |
| 2026-04-22 09:03 | 17.95328 | -62.96078 | 2007 ft | 151 kts | 150° |
| 2026-04-22 09:04 | 17.94387 | -62.95587 | 2007 ft | 151 kts | 150° |
| 2026-04-22 09:04 | 17.93447 | -62.95097 | 2004 ft | 151 kts | 150° |
| 2026-04-22 09:04 | 17.92504 | -62.94604 | 1957 ft | 154 kts | 150° |
| 2026-04-22 09:04 | 17.91541 | -62.94100 | 1849 ft | 151 kts | 149° |
| 2026-04-22 09:05 | 17.90715 | -62.93463 | 1648 ft | 145 kts | 124° |
| 2026-04-22 09:05 | 17.90305 | -62.92550 | 1497 ft | 129 kts | 97° |
| 2026-04-22 09:05 | 17.90277 | -62.91689 | 1479 ft | 110 kts | 83° |
| 2026-04-22 09:05 | 17.90287 | -62.90919 | 1379 ft | 109 kts | 88° |
| 2026-04-22 09:06 | 17.90236 | -62.90065 | 1140 ft | 121 kts | 91° |
| 2026-04-22 09:06 | 17.90151 | -62.89174 | 943 ft | 125 kts | 92° |
| 2026-04-22 09:06 | 17.90140 | -62.88286 | 851 ft | 113 kts | 82° |
| 2026-04-22 09:06 | 17.90210 | -62.87479 | 629 ft | 110 kts | 80° |
| 2026-04-22 09:07 | 17.90292 | -62.86701 | 489 ft | 103 kts | 81° |
| 2026-04-22 09:07 | 17.90319 | -62.85954 | 391 ft | 100 kts | 85° |
| 2026-04-22 09:07 | 17.90384 | -62.85232 | 277 ft | 99 kts | 77° |
| 2026-04-22 09:07 | 17.90435 | -62.84549 | 47 ft | 92 kts | 86° |
| 2026-04-22 09:08 | 17.90445 | -62.84084 | 14 ft | 13 kts | 76° |
| 2026-04-22 09:08 | 17.90451 | -62.84074 | 14 ft | 5 kts | 246° |
| 2026-04-22 09:08 | 17.90444 | -62.84149 | 15 ft | 16 kts | 269° |
| 2026-04-22 09:08 | 17.90442 | -62.84297 | 24 ft | 24 kts | 270° |
| 2026-04-22 09:09 | 17.90437 | -62.84492 | 40 ft | 29 kts | 268° |
| 2026-04-22 09:09 | 17.90413 | -62.84567 | 46 ft | 5 kts | 166° |
| 2026-04-22 09:09 | 17.90392 | -62.84546 | 44 ft | 6 kts | 104° |
| 2026-04-22 09:09 | 17.90383 | -62.84533 | 43 ft | 3 kts | 175° |
| 2026-04-22 09:10 | 17.90371 | -62.84527 | 42 ft | 1 kts | 84° |
| 2026-04-22 09:10 | 17.90372 | -62.84526 | 42 ft | 0 kts | 86° |